Time;durP1;ratioP1;P1;durP2;ratioP2;P2;SDS_P1;SDS_P2;PMS_P1;PMS_P2;Temp;Humidity;BMP_temperature;BMP_pressure;BME280_temperature;BME280_humidity;BME280_pressure;Samples;Min_cycle;Max_cycle;Signal;HPM_P1;HPM_P2
2022/07/05 00:00:07;;;;;;;1.30;0.40;;;13.70;99.90;;;;;;5056124;28;20090;-73
2022/07/05 00:02:33;;;;;;;0.85;0.40;;;13.70;99.90;;;;;;5057501;28;20044;-73
2022/07/05 00:04:59;;;;;;;0.77;0.45;;;13.70;99.90;;;;;;5068129;28;20036;-73
2022/07/05 00:07:24;;;;;;;1.40;0.68;;;13.70;99.90;;;;;;5063507;28;20085;-73
2022/07/05 00:09:53;;;;;;;0.60;0.40;;;13.60;99.90;;;;;;5064249;28;20043;-73
2022/07/05 00:12:21;;;;;;;0.50;0.40;;;13.70;99.90;;;;;;5064458;28;20043;-74
2022/07/05 00:14:47;;;;;;;0.75;0.52;;;13.60;99.90;;;;;;5056400;28;20483;-73
2022/07/05 00:17:12;;;;;;;2.40;0.85;;;13.60;99.90;;;;;;5065029;28;20036;-73
2022/07/05 00:19:39;;;;;;;0.70;0.40;;;13.50;99.90;;;;;;5055657;28;20106;-73
2022/07/05 00:22:05;;;;;;;1.30;0.60;;;13.50;99.90;;;;;;5065143;28;20041;-73
2022/07/05 00:24:30;;;;;;;1.05;0.70;;;13.50;99.90;;;;;;5062134;28;20032;-73
2022/07/05 00:26:57;;;;;;;1.27;0.63;;;13.40;99.90;;;;;;5058967;28;20044;-73
2022/07/05 00:29:23;;;;;;;0.60;0.50;;;13.40;99.90;;;;;;5066981;28;20730;-73
2022/07/05 00:31:49;;;;;;;1.13;0.77;;;13.40;99.90;;;;;;5069372;28;20032;-73
2022/07/05 00:34:14;;;;;;;5.03;0.90;;;13.40;99.90;;;;;;5063342;28;20047;-73
2022/07/05 00:36:40;;;;;;;3.78;1.13;;;13.40;99.90;;;;;;5065650;28;20355;-73
2022/07/05 00:39:07;;;;;;;1.88;0.70;;;13.40;99.90;;;;;;5071347;28;20038;-73
2022/07/05 00:41:33;;;;;;;0.80;0.50;;;13.40;99.90;;;;;;5065055;28;20597;-73
2022/07/05 00:44:00;;;;;;;1.20;0.80;;;13.40;99.90;;;;;;5061407;28;20048;-73
2022/07/05 00:46:27;;;;;;;0.90;0.57;;;13.40;99.90;;;;;;5067181;28;20033;-73
2022/07/05 00:48:53;;;;;;;1.55;0.80;;;13.40;99.90;;;;;;5064494;28;20401;-73
2022/07/05 00:51:21;;;;;;;3.00;0.63;;;13.30;99.90;;;;;;5068732;28;20037;-73
2022/07/05 00:53:47;;;;;;;1.25;0.77;;;13.30;99.90;;;;;;5062368;28;20043;-73
2022/07/05 00:56:13;;;;;;;0.95;0.55;;;13.30;99.90;;;;;;5047080;28;20045;-73
2022/07/05 00:58:39;;;;;;;1.45;0.80;;;13.20;99.90;;;;;;5070012;28;20413;-73
2022/07/05 01:01:07;;;;;;;1.27;0.70;;;13.20;99.90;;;;;;5059229;28;20032;-73
2022/07/05 01:03:33;;;;;;;1.67;0.90;;;13.20;99.90;;;;;;5070242;28;20035;-73
2022/07/05 01:06:02;;;;;;;0.77;0.50;;;13.20;99.90;;;;;;5063505;28;20052;-73
2022/07/05 01:08:28;;;;;;;0.93;0.60;;;13.20;99.90;;;;;;5065794;28;20028;-73
2022/07/05 01:10:55;;;;;;;0.85;0.60;;;13.10;99.90;;;;;;5063336;28;20044;-73
2022/07/05 01:13:22;;;;;;;0.93;0.68;;;13.20;99.90;;;;;;5064668;28;20078;-73
2022/07/05 01:15:48;;;;;;;1.73;1.13;;;13.20;99.90;;;;;;5059141;28;20512;-73
2022/07/05 01:18:14;;;;;;;1.85;0.90;;;13.10;99.90;;;;;;5063634;28;20192;-73
2022/07/05 01:20:41;;;;;;;1.00;0.77;;;13.10;99.90;;;;;;5061731;28;20802;-73
2022/07/05 01:23:07;;;;;;;1.67;0.80;;;13.00;99.90;;;;;;5064090;28;20648;-74
2022/07/05 01:25:33;;;;;;;1.83;0.80;;;13.00;99.90;;;;;;5061035;28;20032;-73
2022/07/05 01:28:00;;;;;;;1.50;0.98;;;13.00;99.90;;;;;;5054875;28;20738;-73
2022/07/05 01:30:26;;;;;;;1.88;1.00;;;13.00;99.90;;;;;;5070678;28;20086;-73
2022/07/05 01:32:52;;;;;;;1.90;0.77;;;13.00;99.90;;;;;;5052444;28;20049;-73
2022/07/05 01:35:23;;;;;;;2.78;1.40;;;13.00;99.90;;;;;;5065545;28;20040;-73
2022/07/05 01:37:50;;;;;;;1.48;1.08;;;13.00;99.90;;;;;;5061417;28;20064;-73
2022/07/05 01:40:17;;;;;;;2.13;1.08;;;13.00;99.90;;;;;;5047957;28;20415;-73
2022/07/05 01:42:43;;;;;;;1.83;0.90;;;12.90;99.90;;;;;;5059076;28;20079;-73
2022/07/05 01:45:09;;;;;;;0.98;0.70;;;12.90;99.90;;;;;;5067439;28;20123;-73
2022/07/05 01:47:46;;;;;;;2.17;1.10;;;12.90;99.90;;;;;;5061467;28;20036;-73
2022/07/05 01:50:14;;;;;;;1.95;0.93;;;12.90;99.90;;;;;;5056277;28;20042;-73
2022/07/05 01:52:43;;;;;;;0.80;0.50;;;12.80;99.90;;;;;;5065699;28;20036;-73
2022/07/05 01:55:09;;;;;;;1.20;0.80;;;12.80;99.90;;;;;;5058520;28;20457;-73
2022/07/05 01:57:35;;;;;;;1.60;0.70;;;12.80;99.90;;;;;;5056770;28;20040;-73
2022/07/05 02:00:01;;;;;;;1.30;0.95;;;12.80;99.90;;;;;;5062214;28;20154;-73
2022/07/05 02:02:26;;;;;;;1.85;0.90;;;12.80;99.90;;;;;;5066244;28;20375;-73
2022/07/05 02:04:52;;;;;;;1.23;1.00;;;12.80;99.90;;;;;;5064787;28;20044;-73
2022/07/05 02:07:17;;;;;;;1.80;1.00;;;12.80;99.90;;;;;;5080741;28;20457;-73
2022/07/05 02:09:43;;;;;;;1.25;0.80;;;12.80;99.90;;;;;;5062315;28;20033;-73
2022/07/05 02:12:09;;;;;;;1.38;0.90;;;12.80;99.90;;;;;;5064769;28;20448;-73
2022/07/05 02:14:35;;;;;;;1.95;1.00;;;12.70;99.90;;;;;;5062301;28;20028;-73
2022/07/05 02:17:01;;;;;;;3.92;1.10;;;12.70;99.90;;;;;;5058638;28;20052;-73
2022/07/05 02:19:27;;;;;;;2.08;0.88;;;12.80;99.90;;;;;;5057181;28;20055;-73
2022/07/05 02:21:53;;;;;;;3.17;1.42;;;12.80;99.90;;;;;;5068743;28;20408;-73
2022/07/05 02:24:20;;;;;;;1.92;0.90;;;12.70;99.90;;;;;;5070044;28;20035;-73
2022/07/05 02:26:47;;;;;;;1.35;0.77;;;12.70;99.90;;;;;;5063647;28;20039;-73
2022/07/05 02:29:13;;;;;;;2.92;1.10;;;12.70;99.90;;;;;;5065590;28;20624;-73
2022/07/05 02:31:38;;;;;;;1.65;1.02;;;12.60;99.90;;;;;;5071419;28;20142;-73
2022/07/05 02:34:04;;;;;;;2.72;1.10;;;12.70;99.90;;;;;;5062347;28;20036;-73
2022/07/05 02:36:29;;;;;;;1.75;0.90;;;12.60;99.90;;;;;;5066408;28;20040;-73
2022/07/05 02:38:55;;;;;;;1.98;1.20;;;12.60;99.90;;;;;;5061518;28;20088;-73
2022/07/05 02:41:21;;;;;;;1.58;0.90;;;12.60;99.90;;;;;;5052314;28;20414;-73
2022/07/05 02:43:46;;;;;;;3.42;1.33;;;12.50;99.90;;;;;;5046604;28;20052;-73
2022/07/05 02:46:12;;;;;;;2.33;1.15;;;12.50;99.90;;;;;;5059695;28;20051;-73
2022/07/05 02:48:38;;;;;;;2.45;1.52;;;12.50;99.90;;;;;;5056779;28;20033;-73
2022/07/05 02:51:04;;;;;;;3.22;1.50;;;12.50;99.90;;;;;;5056716;28;20051;-73
2022/07/05 02:53:30;;;;;;;2.38;1.30;;;12.50;99.90;;;;;;5067623;28;20043;-73
2022/07/05 02:55:56;;;;;;;1.42;1.02;;;12.60;99.90;;;;;;5054297;28;20039;-73
2022/07/05 02:58:22;;;;;;;2.55;1.25;;;12.60;99.90;;;;;;5063002;28;20067;-73
2022/07/05 03:00:48;;;;;;;2.33;1.48;;;12.60;99.90;;;;;;5065599;28;20036;-73
2022/07/05 03:03:15;;;;;;;3.00;1.35;;;12.50;99.90;;;;;;5066006;28;20161;-73
2022/07/05 03:05:41;;;;;;;2.28;1.33;;;12.50;99.90;;;;;;5059936;28;20470;-73
2022/07/05 03:08:07;;;;;;;2.33;1.25;;;12.50;99.90;;;;;;5071534;28;20062;-73
2022/07/05 03:10:34;;;;;;;2.40;1.35;;;12.60;99.90;;;;;;5066536;28;20036;-73
2022/07/05 03:13:00;;;;;;;3.83;1.63;;;12.60;99.90;;;;;;5066882;28;20036;-73
2022/07/05 03:15:26;;;;;;;1.95;1.25;;;12.50;99.90;;;;;;5059670;28;20052;-73
2022/07/05 03:17:52;;;;;;;2.40;1.25;;;12.50;99.90;;;;;;5062319;28;20040;-73
2022/07/05 03:20:18;;;;;;;5.70;1.70;;;12.50;99.90;;;;;;5070054;28;20397;-73
2022/07/05 03:22:43;;;;;;;2.45;1.23;;;12.60;99.90;;;;;;5068808;28;20040;-73
2022/07/05 03:25:09;;;;;;;3.10;1.85;;;12.60;99.90;;;;;;5062660;28;20402;-73
2022/07/05 03:27:35;;;;;;;2.42;1.52;;;12.60;99.90;;;;;;5066601;28;20389;-73
2022/07/05 03:30:01;;;;;;;2.38;1.83;;;12.60;99.90;;;;;;5062780;28;20497;-73
2022/07/05 03:32:27;;;;;;;1.70;1.17;;;12.60;99.90;;;;;;5068922;28;20051;-73
2022/07/05 03:34:52;;;;;;;3.08;1.70;;;12.60;99.90;;;;;;5062548;28;20035;-73
2022/07/05 03:37:18;;;;;;;7.03;1.67;;;12.60;99.90;;;;;;5066588;28;20036;-73
2022/07/05 03:39:43;;;;;;;3.17;1.73;;;12.60;99.90;;;;;;5063688;28;20028;-73
2022/07/05 03:42:09;;;;;;;4.05;1.25;;;12.60;99.90;;;;;;5056212;28;20093;-73
2022/07/05 03:44:35;;;;;;;4.57;1.48;;;12.60;99.90;;;;;;5060991;28;20390;-73
2022/07/05 03:47:00;;;;;;;3.03;1.50;;;12.60;99.90;;;;;;5054714;28;20052;-73
2022/07/05 03:49:26;;;;;;;2.97;1.83;;;12.60;99.90;;;;;;5054006;28;20033;-73
2022/07/05 03:51:52;;;;;;;3.88;1.70;;;12.60;99.90;;;;;;5062785;28;20542;-73
2022/07/05 03:54:17;;;;;;;3.35;1.77;;;12.60;99.90;;;;;;5061603;28;20035;-73
2022/07/05 03:56:43;;;;;;;2.42;1.60;;;12.70;99.90;;;;;;5066991;28;20383;-73
2022/07/05 03:59:08;;;;;;;2.47;1.55;;;12.60;99.90;;;;;;5060211;28;20519;-73
2022/07/05 04:01:34;;;;;;;2.83;1.58;;;12.60;99.90;;;;;;5064667;28;20039;-73
2022/07/05 04:04:00;;;;;;;2.83;1.67;;;12.70;99.90;;;;;;5065096;28;20032;-73
2022/07/05 04:06:25;;;;;;;4.28;2.00;;;12.70;99.90;;;;;;5064906;28;20037;-73
2022/07/05 04:08:51;;;;;;;6.88;2.08;;;12.70;99.90;;;;;;5075063;28;20047;-73
2022/07/05 04:11:17;;;;;;;3.55;1.58;;;12.70;99.90;;;;;;5064950;28;20024;-73
2022/07/05 04:13:43;;;;;;;3.25;1.90;;;12.70;99.90;;;;;;5067115;28;20486;-73
2022/07/05 04:16:09;;;;;;;2.40;1.42;;;12.80;99.90;;;;;;5066757;28;20040;-73
2022/07/05 04:18:35;;;;;;;2.92;1.40;;;12.80;99.90;;;;;;5067246;28;20105;-73
2022/07/05 04:21:05;;;;;;;3.67;1.83;;;12.80;99.90;;;;;;5064656;28;20075;-73
2022/07/05 04:23:30;;;;;;;5.82;2.95;;;12.90;99.90;;;;;;5066435;28;20165;-73
2022/07/05 04:25:56;;;;;;;3.50;2.08;;;12.90;99.90;;;;;;5068899;28;20503;-73
2022/07/05 04:28:22;;;;;;;4.22;1.90;;;12.90;99.90;;;;;;5070169;28;20039;-73
2022/07/05 04:30:47;;;;;;;4.07;2.05;;;12.90;99.90;;;;;;5064149;28;20024;-73
2022/07/05 04:33:13;;;;;;;3.13;1.80;;;12.90;99.90;;;;;;5073675;28;21796;-73
2022/07/05 04:35:39;;;;;;;2.92;1.70;;;13.00;99.90;;;;;;5066197;28;20039;-73
2022/07/05 04:38:04;;;;;;;2.97;1.90;;;13.00;99.90;;;;;;5060757;28;20040;-73
2022/07/05 04:40:30;;;;;;;3.35;1.85;;;13.10;99.90;;;;;;5069227;28;20028;-73
2022/07/05 04:42:56;;;;;;;2.90;1.77;;;13.10;99.90;;;;;;5052252;28;20455;-73
2022/07/05 04:45:22;;;;;;;3.40;1.90;;;13.20;99.90;;;;;;5069321;28;20044;-73
2022/07/05 04:47:47;;;;;;;2.72;1.63;;;13.30;99.90;;;;;;5062330;28;20033;-73
2022/07/05 04:50:13;;;;;;;4.75;2.33;;;13.30;99.90;;;;;;5060923;28;20077;-73
2022/07/05 04:52:39;;;;;;;4.28;1.70;;;13.40;99.90;;;;;;5071282;28;20063;-73
2022/07/05 04:55:05;;;;;;;3.63;2.00;;;13.30;99.90;;;;;;5069242;28;20040;-73
2022/07/05 04:57:41;;;;;;;3.63;2.10;;;13.40;99.90;;;;;;5049534;28;20064;-73
2022/07/05 05:00:13;;;;;;;3.65;1.98;;;13.50;99.90;;;;;;5065388;28;20039;-73
2022/07/05 05:02:38;;;;;;;3.90;2.35;;;13.50;99.90;;;;;;5067360;28;20034;-73
2022/07/05 05:05:05;;;;;;;3.08;2.13;;;13.50;99.90;;;;;;5061983;28;20032;-73
2022/07/05 05:07:31;;;;;;;2.88;1.92;;;13.50;99.90;;;;;;5061235;28;20055;-73
2022/07/05 05:09:56;;;;;;;4.72;2.67;;;13.50;99.90;;;;;;5061914;28;21570;-73
2022/07/05 05:12:22;;;;;;;3.28;2.10;;;13.60;99.90;;;;;;5061528;28;20103;-73
2022/07/05 05:14:48;;;;;;;5.63;2.20;;;13.60;99.90;;;;;;5063013;28;20040;-73
2022/07/05 05:17:14;;;;;;;2.80;1.50;;;13.60;99.90;;;;;;5067798;28;20469;-73
2022/07/05 05:19:40;;;;;;;3.55;1.70;;;13.60;99.90;;;;;;5057710;28;20048;-73
2022/07/05 05:22:05;;;;;;;2.72;1.67;;;13.70;99.90;;;;;;5063950;28;20037;-73
2022/07/05 05:24:34;;;;;;;3.45;1.80;;;13.70;99.90;;;;;;5058762;28;20048;-73
2022/07/05 05:27:00;;;;;;;3.13;1.45;;;13.80;99.90;;;;;;5065600;28;20036;-73
2022/07/05 05:29:26;;;;;;;3.50;1.98;;;13.80;99.90;;;;;;5069547;28;20024;-73
2022/07/05 05:31:52;;;;;;;3.03;1.92;;;13.90;99.90;;;;;;5062219;28;20187;-73
2022/07/05 05:34:17;;;;;;;2.22;1.50;;;13.90;99.90;;;;;;5067651;28;20035;-73
2022/07/05 05:36:43;;;;;;;3.40;2.17;;;13.90;99.90;;;;;;5064774;28;20186;-73
2022/07/05 05:39:08;;;;;;;2.78;1.85;;;13.90;99.90;;;;;;5065111;28;20408;-73
2022/07/05 05:41:35;;;;;;;4.78;2.00;;;13.90;99.90;;;;;;5061338;28;20037;-73
2022/07/05 05:44:01;;;;;;;6.18;2.40;;;13.80;99.90;;;;;;5068550;28;20095;-73
2022/07/05 05:46:26;;;;;;;2.30;1.42;;;13.90;99.90;;;;;;5067364;28;20045;-73
2022/07/05 05:48:52;;;;;;;4.07;2.10;;;13.90;99.90;;;;;;5054131;28;20140;-73
2022/07/05 05:51:18;;;;;;;2.95;1.65;;;14.00;99.90;;;;;;5051763;28;20255;-73
2022/07/05 05:53:45;;;;;;;4.95;1.98;;;13.90;99.90;;;;;;5064966;28;20056;-73
2022/07/05 05:56:14;;;;;;;2.67;1.50;;;14.00;99.90;;;;;;5068670;28;20081;-73
2022/07/05 05:58:39;;;;;;;3.92;1.83;;;14.10;99.90;;;;;;5060381;28;20059;-73
2022/07/05 06:01:05;;;;;;;4.30;2.45;;;14.10;99.90;;;;;;5069439;28;20486;-73
2022/07/05 06:03:31;;;;;;;2.38;1.38;;;14.20;99.90;;;;;;5059230;28;20132;-73
2022/07/05 06:05:56;;;;;;;2.95;1.60;;;14.20;99.90;;;;;;5064701;28;20040;-73
2022/07/05 06:08:22;;;;;;;2.95;1.55;;;14.30;99.90;;;;;;5060724;28;20071;-73
2022/07/05 06:10:48;;;;;;;2.63;1.60;;;14.30;99.90;;;;;;5068710;28;20033;-73
2022/07/05 06:13:14;;;;;;;2.67;0.98;;;14.30;99.90;;;;;;5060070;28;20055;-73
2022/07/05 06:15:41;;;;;;;5.88;1.85;;;14.40;99.90;;;;;;5059929;28;20039;-73
2022/07/05 06:18:08;;;;;;;2.80;1.55;;;14.50;99.90;;;;;;5062692;28;20052;-73
2022/07/05 06:20:36;;;;;;;1.85;1.13;;;14.50;99.90;;;;;;5062169;28;20132;-73
2022/07/05 06:23:03;;;;;;;2.50;1.50;;;14.60;99.90;;;;;;5061065;28;20189;-73
2022/07/05 06:25:30;;;;;;;3.25;1.40;;;14.70;99.90;;;;;;5059543;28;20044;-73
2022/07/05 06:27:57;;;;;;;2.22;1.02;;;14.70;99.90;;;;;;5062684;28;20045;-73
2022/07/05 06:30:25;;;;;;;1.83;1.00;;;14.80;99.90;;;;;;5058989;28;20090;-73
2022/07/05 06:32:51;;;;;;;1.75;1.00;;;14.90;99.90;;;;;;5053333;28;20045;-73
2022/07/05 06:35:17;;;;;;;1.77;1.08;;;15.20;99.90;;;;;;5057656;28;20036;-74
2022/07/05 06:37:43;;;;;;;1.85;0.82;;;15.70;99.90;;;;;;5059738;28;20093;-73
2022/07/05 06:40:10;;;;;;;1.10;0.70;;;16.70;99.90;;;;;;5065410;28;20093;-73
2022/07/05 06:42:36;;;;;;;1.90;0.80;;;18.00;99.90;;;;;;5066753;28;20040;-73
2022/07/05 06:45:02;;;;;;;1.02;0.60;;;19.10;99.90;;;;;;5051468;28;20420;-73
2022/07/05 06:47:27;;;;;;;1.95;0.80;;;20.10;99.00;;;;;;5062525;28;20242;-73
2022/07/05 06:49:53;;;;;;;1.55;0.77;;;20.90;98.10;;;;;;5066132;28;20033;-74
2022/07/05 06:52:18;;;;;;;1.42;0.65;;;21.50;96.60;;;;;;5061141;28;20500;-74
2022/07/05 06:54:44;;;;;;;1.23;0.40;;;21.70;95.60;;;;;;5063500;28;20051;-74
2022/07/05 06:57:10;;;;;;;2.50;0.60;;;21.70;95.60;;;;;;5059259;28;20039;-74
2022/07/05 06:59:36;;;;;;;0.80;0.40;;;21.10;96.50;;;;;;5042828;28;20120;-74
2022/07/05 07:02:02;;;;;;;0.63;0.30;;;20.50;98.00;;;;;;5066131;28;20040;-74
2022/07/05 07:04:27;;;;;;;0.32;0.32;;;19.80;99.20;;;;;;5064838;28;20497;-74
2022/07/05 07:06:53;;;;;;;0.43;0.30;;;19.30;99.90;;;;;;5059694;28;20511;-75
2022/07/05 07:09:20;;;;;;;2.05;0.40;;;19.00;99.90;;;;;;5040912;28;20044;-75
2022/07/05 07:11:47;;;;;;;0.73;0.50;;;18.70;99.90;;;;;;5062183;28;20113;-74
2022/07/05 07:14:12;;;;;;;1.15;0.40;;;18.50;99.90;;;;;;5054616;28;20037;-74
2022/07/05 07:16:38;;;;;;;3.30;0.47;;;18.30;99.90;;;;;;5056456;28;20551;-74
2022/07/05 07:19:04;;;;;;;0.50;0.40;;;18.20;99.90;;;;;;5054875;28;20052;-73
2022/07/05 07:21:30;;;;;;;0.47;0.30;;;18.00;99.90;;;;;;5062324;28;20044;-74
2022/07/05 07:23:55;;;;;;;0.40;0.30;;;18.00;99.90;;;;;;5054558;28;20055;-74
2022/07/05 07:26:21;;;;;;;0.55;0.40;;;17.90;99.90;;;;;;5051755;28;20103;-73
2022/07/05 07:28:47;;;;;;;0.55;0.30;;;17.80;99.90;;;;;;5054851;28;20072;-73
2022/07/05 07:31:12;;;;;;;0.43;0.25;;;17.80;99.90;;;;;;5065079;28;20032;-73
2022/07/05 07:33:38;;;;;;;0.98;0.50;;;17.70;99.90;;;;;;5061727;28;20474;-74
2022/07/05 07:36:04;;;;;;;0.20;0.20;;;17.70;99.90;;;;;;5059564;28;20065;-81
2022/07/05 07:38:30;;;;;;;0.85;0.20;;;17.60;99.90;;;;;;5058750;28;20074;-74
2022/07/05 07:40:55;;;;;;;0.65;0.30;;;17.60;99.90;;;;;;5068916;28;20406;-74
2022/07/05 07:43:21;;;;;;;0.82;0.40;;;17.60;99.90;;;;;;5055264;28;20043;-74
2022/07/05 07:45:48;;;;;;;0.77;0.40;;;17.60;99.90;;;;;;5059345;28;20047;-74
2022/07/05 07:48:13;;;;;;;0.80;0.28;;;17.60;99.90;;;;;;5072632;28;20140;-74
2022/07/05 07:50:39;;;;;;;0.47;0.30;;;17.60;99.90;;;;;;5052717;28;20027;-73
2022/07/05 07:53:05;;;;;;;2.63;0.32;;;17.60;99.90;;;;;;5042640;28;20025;-74
2022/07/05 07:55:30;;;;;;;0.30;0.30;;;17.60;99.60;;;;;;5058729;28;20087;-73
2022/07/05 07:57:56;;;;;;;0.80;0.30;;;17.60;99.30;;;;;;5061920;28;20131;-73
2022/07/05 08:00:22;;;;;;;0.73;0.45;;;17.60;99.30;;;;;;5064047;28;20084;-74
2022/07/05 08:02:47;;;;;;;0.55;0.30;;;17.50;99.00;;;;;;5060686;28;20053;-74
2022/07/05 08:05:13;;;;;;;0.35;0.30;;;17.50;99.00;;;;;;5065923;28;20097;-74
2022/07/05 08:07:38;;;;;;;0.40;0.28;;;17.40;99.40;;;;;;5058114;28;20298;-74
2022/07/05 08:10:05;;;;;;;1.42;0.40;;;17.50;99.80;;;;;;5060962;28;20052;-74
2022/07/05 08:12:31;;;;;;;0.50;0.40;;;17.40;99.50;;;;;;5060016;28;20044;-74
2022/07/05 08:14:56;;;;;;;0.82;0.22;;;17.50;99.90;;;;;;5067938;28;20040;-74
2022/07/05 08:17:22;;;;;;;0.40;0.30;;;17.60;99.60;;;;;;5064900;28;20072;-74
2022/07/05 08:22:31;;;;;;;1.50;0.28;;;17.70;99.10;;;;;;5050029;28;22544;-74
2022/07/05 08:24:57;;;;;;;0.55;0.20;;;17.80;99.00;;;;;;5062355;28;20036;-74
2022/07/05 08:27:24;;;;;;;0.47;0.32;;;17.80;98.90;;;;;;5052187;28;20044;-74
2022/07/05 08:29:49;;;;;;;0.82;0.20;;;17.80;99.00;;;;;;5059357;28;20478;-72
2022/07/05 08:32:16;;;;;;;0.40;0.30;;;17.80;99.10;;;;;;5059692;28;20024;-73
2022/07/05 08:34:42;;;;;;;0.40;0.10;;;17.90;98.90;;;;;;5059234;28;20032;-73
2022/07/05 08:37:08;;;;;;;0.80;0.30;;;17.90;98.70;;;;;;5037358;28;20519;-73
2022/07/05 08:39:34;;;;;;;0.73;0.38;;;18.00;98.70;;;;;;5059611;28;20689;-73
2022/07/05 08:42:01;;;;;;;2.05;0.28;;;18.00;97.90;;;;;;5058022;28;20087;-73
2022/07/05 08:44:35;;;;;;;0.73;0.30;;;18.00;97.40;;;;;;5037341;28;20052;-73
2022/07/05 08:47:03;;;;;;;0.82;0.30;;;18.10;97.30;;;;;;5040151;28;20068;-73
2022/07/05 08:49:32;;;;;;;0.45;0.40;;;18.10;96.80;;;;;;5053451;28;20032;-73
2022/07/05 08:51:59;;;;;;;0.32;0.25;;;18.10;97.10;;;;;;5055553;28;20111;-73
2022/07/05 08:54:25;;;;;;;1.00;0.30;;;18.10;96.80;;;;;;5062691;28;20066;-73
2022/07/05 08:56:51;;;;;;;0.73;0.40;;;18.10;96.20;;;;;;5040839;28;20132;-74
2022/07/05 08:59:17;;;;;;;0.30;0.22;;;18.10;96.30;;;;;;5052581;28;20057;-73
2022/07/05 09:01:45;;;;;;;0.20;0.20;;;18.00;96.40;;;;;;5053223;28;20047;-75
2022/07/05 09:04:12;;;;;;;0.52;0.50;;;17.90;95.60;;;;;;5059634;28;20036;-73
2022/07/05 09:06:39;;;;;;;0.40;0.30;;;17.80;96.40;;;;;;5053136;28;20040;-74
2022/07/05 09:09:06;;;;;;;0.20;0.20;;;17.80;96.70;;;;;;5062695;28;20036;-73
2022/07/05 09:11:37;;;;;;;0.20;0.20;;;17.90;96.40;;;;;;5055632;28;20040;-74
2022/07/05 09:14:06;;;;;;;0.75;0.35;;;17.90;95.30;;;;;;5064403;28;20085;-71
2022/07/05 09:16:33;;;;;;;0.60;0.40;;;17.80;95.40;;;;;;5061112;28;20086;-72
2022/07/05 09:19:06;;;;;;;0.63;0.50;;;17.80;95.60;;;;;;5077024;28;20051;-74
2022/07/05 09:21:32;;;;;;;1.25;0.30;;;17.80;95.30;;;;;;5065477;28;20040;-74
2022/07/05 09:23:58;;;;;;;0.35;0.20;;;17.90;95.90;;;;;;5059095;28;20044;-74
2022/07/05 09:26:40;;;;;;;0.52;0.20;;;18.00;96.10;;;;;;5064738;28;20036;-74
2022/07/05 09:29:26;;;;;;;0.95;0.30;;;18.10;94.90;;;;;;5057427;28;20044;-75
2022/07/05 09:31:52;;;;;;;;;;;18.10;93.70;;;;;;5059191;28;21704;-74
2022/07/05 09:34:18;;;;;;;;;;;18.10;92.80;;;;;;5054500;28;19924;-75
2022/07/05 09:36:59;;;;;;;0.30;0.25;;;18.20;93.60;;;;;;5056782;28;20360;-75
2022/07/05 09:39:33;;;;;;;0.40;0.20;;;18.20;94.70;;;;;;5053856;28;20024;-74
2022/07/05 09:42:11;;;;;;;0.60;0.35;;;18.30;95.40;;;;;;5056027;28;20032;-74
2022/07/05 09:44:46;;;;;;;0.30;0.20;;;18.30;94.20;;;;;;5052294;28;20041;-74
2022/07/05 09:47:14;;;;;;;0.63;0.40;;;18.30;93.80;;;;;;5056911;28;20429;-74
2022/07/05 09:49:49;;;;;;;0.57;0.22;;;18.30;95.10;;;;;;5055981;28;20151;-74
2022/07/05 09:52:31;;;;;;;4.03;0.40;;;18.30;95.20;;;;;;5056751;28;20045;-75
2022/07/05 09:55:08;;;;;;;0.70;0.30;;;18.40;93.90;;;;;;5053612;28;20032;-74
2022/07/05 09:57:36;;;;;;;0.82;0.43;;;18.50;94.10;;;;;;5058077;28;20047;-73
2022/07/05 10:00:14;;;;;;;24.52;3.88;;;18.60;94.70;;;;;;5055786;28;20599;-74
2022/07/05 10:02:40;;;;;;;4.88;1.15;;;18.70;94.10;;;;;;5038503;28;20028;-75
2022/07/05 10:05:14;;;;;;;1.42;0.40;;;18.60;94.20;;;;;;5067808;28;20667;-75
2022/07/05 10:07:41;;;;;;;1.13;0.35;;;18.50;93.80;;;;;;5072812;28;20476;-74
2022/07/05 10:10:09;;;;;;;0.98;0.55;;;18.40;94.20;;;;;;5057424;28;20482;-75
2022/07/05 10:12:37;;;;;;;0.80;0.40;;;18.30;94.40;;;;;;5051214;28;20494;-75
2022/07/05 10:15:03;;;;;;;0.20;0.20;;;18.10;94.30;;;;;;5051234;28;20037;-75
2022/07/05 10:17:34;;;;;;;0.30;0.22;;;18.10;94.40;;;;;;5063078;28;20115;-74
2022/07/05 10:20:32;;;;;;;;;;;18.00;94.40;;;;;;5086680;27;20688;-73
2022/07/05 10:22:58;;;;;;;0.22;0.20;;;18.00;92.00;;;;;;5099842;28;19924;-74
2022/07/05 10:25:27;;;;;;;1.92;0.43;;;17.90;94.50;;;;;;5104356;28;20036;-74
2022/07/05 10:27:53;;;;;;;0.75;0.30;;;17.90;94.30;;;;;;5071692;28;20527;-74
2022/07/05 10:30:22;;;;;;;0.68;0.43;;;17.90;94.30;;;;;;5053457;28;20057;-74
2022/07/05 10:32:49;;;;;;;1.52;0.60;;;18.00;94.50;;;;;;5092786;28;20048;-74
2022/07/05 10:35:17;;;;;;;1.75;0.30;;;18.00;94.30;;;;;;5075185;28;20040;-74
2022/07/05 10:37:43;;;;;;;0.75;0.45;;;18.10;94.60;;;;;;5074757;28;20456;-74
2022/07/05 10:40:10;;;;;;;1.65;0.40;;;18.30;94.80;;;;;;5073323;28;20497;-74
2022/07/05 10:42:58;;;;;;;0.75;0.40;;;18.40;94.50;;;;;;5070921;28;20040;-74
2022/07/05 10:45:29;;;;;;;0.60;0.30;;;18.50;92.20;;;;;;5106588;28;20070;-74
2022/07/05 10:48:13;;;;;;;0.68;0.30;;;18.60;92.50;;;;;;5073465;28;20143;-74
2022/07/05 10:50:59;;;;;;;0.45;0.38;;;18.50;90.80;;;;;;5069525;28;20076;-74
2022/07/05 10:53:27;;;;;;;0.38;0.30;;;18.30;91.40;;;;;;5086748;28;20386;-74
2022/07/05 10:55:58;;;;;;;0.70;0.30;;;18.20;93.10;;;;;;5076748;28;20473;-74
2022/07/05 10:58:31;;;;;;;0.65;0.40;;;18.10;93.10;;;;;;5106597;27;20174;-78
2022/07/05 11:01:12;;;;;;;0.25;0.25;;;18.10;93.70;;;;;;5052981;28;20200;-74
2022/07/05 11:03:45;;;;;;;0.75;0.65;;;18.10;92.60;;;;;;5052701;28;20046;-74
2022/07/05 11:06:39;;;;;;;0.43;0.32;;;18.20;93.70;;;;;;5058804;28;20033;-74
2022/07/05 11:09:07;;;;;;;1.25;0.40;;;18.20;92.90;;;;;;5072408;28;20040;-74
2022/07/05 11:11:34;;;;;;;1.33;0.50;;;18.20;93.50;;;;;;5067823;28;20040;-74
2022/07/05 11:14:02;;;;;;;1.25;0.50;;;18.20;93.40;;;;;;5053294;28;20094;-74
2022/07/05 11:16:29;;;;;;;1.80;0.43;;;18.10;93.80;;;;;;5074192;28;20040;-74
2022/07/05 11:19:12;;;;;;;1.00;0.50;;;18.10;93.70;;;;;;5070071;28;20060;-74
2022/07/05 11:21:42;;;;;;;0.40;0.25;;;18.00;92.20;;;;;;5086593;28;20040;-74
2022/07/05 11:24:28;;;;;;;0.43;0.32;;;17.90;93.70;;;;;;5075945;28;20501;-74
2022/07/05 11:26:57;;;;;;;0.30;0.30;;;17.90;93.60;;;;;;5051824;28;20082;-74
2022/07/05 11:29:46;;;;;;;1.95;0.45;;;17.90;94.20;;;;;;5102975;28;20033;-74
2022/07/05 11:32:17;;;;;;;4.00;0.50;;;17.90;93.70;;;;;;5059683;28;20056;-74
2022/07/05 11:34:44;;;;;;;2.83;0.50;;;18.00;94.40;;;;;;5057051;28;20086;-74
2022/07/05 11:37:24;;;;;;;0.57;0.40;;;18.20;94.40;;;;;;5060061;28;20214;-74
2022/07/05 11:40:10;;;;;;;0.80;0.30;;;18.40;94.20;;;;;;5043189;28;20044;-74
2022/07/05 11:42:41;;;;;;;0.20;0.20;;;18.60;92.30;;;;;;5032417;28;20037;-74
2022/07/05 11:45:11;;;;;;;1.23;0.47;;;18.70;92.80;;;;;;5057002;28;20043;-74
2022/07/05 11:47:37;;;;;;;0.50;0.40;;;18.70;92.20;;;;;;5060517;28;20555;-74
2022/07/05 11:50:03;;;;;;;0.80;0.40;;;18.70;92.60;;;;;;5038621;28;21348;-74
2022/07/05 11:52:35;;;;;;;0.35;0.30;;;18.70;92.20;;;;;;5057557;28;20036;-74
2022/07/05 11:55:04;;;;;;;0.73;0.35;;;18.80;92.50;;;;;;5072158;28;20446;-74
2022/07/05 11:57:29;;;;;;;0.63;0.30;;;18.90;91.80;;;;;;5044846;28;20486;-73
2022/07/05 11:59:55;;;;;;;1.55;0.40;;;18.90;91.90;;;;;;5092980;28;20044;-73
2022/07/05 12:02:21;;;;;;;1.05;0.45;;;18.90;91.90;;;;;;5055750;28;20630;-73
2022/07/05 12:04:51;;;;;;;1.17;0.35;;;19.00;92.00;;;;;;5059686;28;20059;-73
2022/07/05 12:07:32;;;;;;;1.88;0.35;;;19.00;92.10;;;;;;5056003;28;20041;-74
2022/07/05 12:12:43;;;;;;;1.48;0.40;;;19.10;91.30;;;;;;5051693;28;20493;-74
2022/07/05 12:15:09;;;;;;;0.60;0.40;;;19.30;91.60;;;;;;5056035;28;20035;-74
2022/07/05 12:17:37;;;;;;;1.00;0.40;;;19.30;90.50;;;;;;5055585;28;20475;-74
2022/07/05 12:20:04;;;;;;;0.38;0.20;;;19.30;90.10;;;;;;5087466;28;20128;-73
2022/07/05 12:22:36;;;;;;;1.45;0.30;;;19.30;89.90;;;;;;5069994;28;20555;-74
2022/07/05 12:25:04;;;;;;;1.75;0.30;;;19.30;80.60;;;;;;5054771;28;20065;-74
2022/07/05 12:27:33;;;;;;;0.20;0.20;;;19.30;88.20;;;;;;5054953;28;20090;-75
2022/07/05 12:30:01;;;;;;;0.20;0.20;;;19.30;87.30;;;;;;5059880;28;20044;-74
2022/07/05 12:32:28;;;;;;;0.40;0.40;;;19.40;87.10;;;;;;5054323;28;20068;-74
2022/07/05 12:34:54;;;;;;;0.40;0.30;;;19.40;86.30;;;;;;5052466;28;20044;-73
2022/07/05 12:37:22;;;;;;;1.70;0.20;;;19.40;85.00;;;;;;5057547;28;20040;-74
2022/07/05 12:39:48;;;;;;;0.50;0.28;;;19.30;83.60;;;;;;5040018;28;20037;-73
2022/07/05 12:42:32;;;;;;;0.63;0.20;;;19.30;82.10;;;;;;5086541;28;20033;-73
2022/07/05 12:45:15;;;;;;;1.10;0.20;;;19.30;78.50;;;;;;5069798;28;20044;-73
2022/07/05 12:47:53;;;;;;;1.65;0.38;;;19.40;78.10;;;;;;5091085;28;20032;-73
2022/07/05 12:50:20;;;;;;;0.68;0.50;;;19.40;80.70;;;;;;5072660;28;20075;-74
2022/07/05 12:58:01;;;;;;;0.30;0.20;;;19.40;84.80;;;;;;5057939;28;20086;-73
2022/07/05 12:59:07;;;;;;;0.13;0.13;;;19.20;85.30;;;;;;5058651;28;20410;-73